createdAt,value
2022-12-25T00:00:39.984Z,16.86
2022-12-25T00:03:42.767Z,16.87
2022-12-25T00:06:45.040Z,16.84
2022-12-25T00:09:47.158Z,16.85
2022-12-25T00:12:49.701Z,16.85
2022-12-25T00:15:51.939Z,16.85
2022-12-25T00:18:54.252Z,16.85
2022-12-25T00:21:56.385Z,16.84
2022-12-25T00:24:58.553Z,16.84
2022-12-25T00:28:00.715Z,16.85
2022-12-25T00:31:11.376Z,16.84
2022-12-25T00:34:13.606Z,16.84
2022-12-25T00:37:15.804Z,16.82
2022-12-25T00:40:17.982Z,16.83
2022-12-25T00:43:20.165Z,16.83
2022-12-25T00:46:22.369Z,16.84
2022-12-25T00:49:24.712Z,16.84
2022-12-25T00:52:26.891Z,16.83
2022-12-25T00:55:30.900Z,16.83
2022-12-25T00:58:34.178Z,16.83
2022-12-25T01:01:36.589Z,16.83
2022-12-25T01:04:38.841Z,16.83
2022-12-25T01:07:41.071Z,16.83
2022-12-25T01:10:43.251Z,16.83
2022-12-25T01:13:45.935Z,16.84
2022-12-25T01:16:48.189Z,16.83
2022-12-25T01:19:50.713Z,16.84
2022-12-25T01:22:53.219Z,16.84
2022-12-25T01:25:56.115Z,16.83
2022-12-25T01:28:58.251Z,16.83
2022-12-25T01:32:00.438Z,16.82
2022-12-25T01:35:02.762Z,16.82
2022-12-25T01:38:04.898Z,16.82
2022-12-25T01:41:07.266Z,16.83
2022-12-25T01:44:35.296Z,16.82
2022-12-25T01:47:37.657Z,16.82
2022-12-25T01:50:42.732Z,16.81
2022-12-25T01:53:44.917Z,16.80
2022-12-25T01:56:48.340Z,16.81
2022-12-25T01:59:50.556Z,16.81
2022-12-25T02:02:52.827Z,16.80
2022-12-25T02:05:55.183Z,16.81
2022-12-25T02:09:00.168Z,16.81
2022-12-25T02:12:02.422Z,16.81
2022-12-25T02:15:10.757Z,16.80
2022-12-25T02:18:21.139Z,16.80
2022-12-25T02:21:26.388Z,16.80
2022-12-25T02:24:35.514Z,16.80
2022-12-25T02:27:37.576Z,16.80
2022-12-25T02:30:44.676Z,16.80
2022-12-25T02:34:04.485Z,16.79
2022-12-25T02:37:13.217Z,16.79
2022-12-25T02:40:37.327Z,16.79
2022-12-25T02:43:59.970Z,16.78
2022-12-25T02:47:21.199Z,16.78
2022-12-25T02:50:43.748Z,16.78
2022-12-25T02:54:04.846Z,16.78
2022-12-25T02:57:27.581Z,16.79
2022-12-25T03:00:50.383Z,16.78
2022-12-25T03:04:13.666Z,16.78
2022-12-25T03:07:19.472Z,16.78
2022-12-25T03:10:40.452Z,16.76
2022-12-25T03:13:44.914Z,16.78
2022-12-25T03:16:53.054Z,16.77
2022-12-25T03:20:13.590Z,16.77
2022-12-25T03:23:37.884Z,16.78
2022-12-25T03:26:55.151Z,16.77
2022-12-25T03:30:15.584Z,16.77
2022-12-25T03:34:17.437Z,16.76
2022-12-25T03:37:46.017Z,16.76
2022-12-25T03:41:20.983Z,16.77
2022-12-25T03:44:54.230Z,16.77
2022-12-25T03:48:15.573Z,16.76
2022-12-25T03:51:39.556Z,16.76
2022-12-25T03:55:02.298Z,16.75
2022-12-25T03:58:23.158Z,16.76
2022-12-25T04:01:44.069Z,16.76
2022-12-25T04:05:04.843Z,16.76
2022-12-25T04:08:25.639Z,16.75
2022-12-25T04:11:46.008Z,16.75
2022-12-25T04:15:06.818Z,16.75
2022-12-25T04:18:27.574Z,16.75
2022-12-25T04:21:48.007Z,16.74
2022-12-25T04:25:08.519Z,16.74
2022-12-25T04:28:29.174Z,16.74
2022-12-25T04:31:49.583Z,16.74
2022-12-25T04:35:10.472Z,16.74
2022-12-25T04:38:12.577Z,16.73
2022-12-25T04:41:14.816Z,16.73
2022-12-25T04:44:16.963Z,16.73
2022-12-25T04:47:19.160Z,16.69
2022-12-25T04:50:21.310Z,16.72
2022-12-25T04:53:23.495Z,16.72
2022-12-25T04:56:25.701Z,16.73
2022-12-25T04:59:27.881Z,16.72
2022-12-25T05:02:30.233Z,16.72
2022-12-25T05:05:32.584Z,16.71
2022-12-25T05:08:35.698Z,16.73
2022-12-25T05:11:37.896Z,16.70
2022-12-25T05:14:40.150Z,16.72
2022-12-25T05:17:42.305Z,16.72
2022-12-25T05:20:54.656Z,16.71
2022-12-25T05:23:56.831Z,16.71
2022-12-25T05:26:58.971Z,16.71
2022-12-25T05:30:01.092Z,16.71
2022-12-25T05:33:03.648Z,16.71
2022-12-25T05:36:07.511Z,16.71
2022-12-25T05:39:09.686Z,16.70
2022-12-25T05:42:11.822Z,16.70
2022-12-25T05:45:14.013Z,16.70
2022-12-25T05:48:16.475Z,16.70
2022-12-25T05:51:19.800Z,16.70
2022-12-25T05:54:21.882Z,16.70
2022-12-25T05:57:23.981Z,16.70
2022-12-25T06:00:26.110Z,16.70
2022-12-25T06:03:28.363Z,16.69
2022-12-25T06:06:30.670Z,16.70
2022-12-25T06:09:32.777Z,16.69
2022-12-25T06:12:34.903Z,16.69
2022-12-25T06:15:40.953Z,16.68
2022-12-25T06:18:46.650Z,16.68
2022-12-25T06:21:48.917Z,16.68
2022-12-25T06:24:51.511Z,16.68
2022-12-25T06:27:53.693Z,16.68
2022-12-25T06:30:56.520Z,16.67
2022-12-25T06:33:58.619Z,16.68
2022-12-25T06:37:00.702Z,16.68
2022-12-25T06:40:02.887Z,16.67
2022-12-25T06:43:04.985Z,16.68
2022-12-25T06:46:09.970Z,16.68
2022-12-25T06:49:12.355Z,16.68
2022-12-25T06:52:14.521Z,16.68
2022-12-25T06:55:16.762Z,16.67
2022-12-25T06:58:19.056Z,16.67
2022-12-25T07:01:34.338Z,16.67
2022-12-25T07:04:40.909Z,16.67
2022-12-25T07:07:43.089Z,16.67
2022-12-25T07:10:45.189Z,16.68
2022-12-25T07:13:47.448Z,16.67
2022-12-25T07:16:50.177Z,16.67
2022-12-25T07:19:52.691Z,16.68
2022-12-25T07:22:54.859Z,16.67
2022-12-25T07:25:58.768Z,16.68
2022-12-25T07:29:01.009Z,16.67
2022-12-25T07:32:03.407Z,16.68
2022-12-25T07:35:05.926Z,16.68
2022-12-25T07:38:08.132Z,16.68
2022-12-25T07:41:11.755Z,16.68
2022-12-25T07:44:13.875Z,16.68
2022-12-25T07:47:16.506Z,16.68
2022-12-25T07:50:18.629Z,16.68
2022-12-25T07:53:20.739Z,16.68
2022-12-25T07:56:23.221Z,16.68
2022-12-25T07:59:25.497Z,16.69
2022-12-25T08:02:29.078Z,16.68
2022-12-25T08:05:33.001Z,16.68
2022-12-25T08:08:36.212Z,16.69
2022-12-25T08:11:38.997Z,16.68
2022-12-25T08:14:41.181Z,16.69
2022-12-25T08:17:43.359Z,16.69
2022-12-25T08:20:45.438Z,16.69
2022-12-25T08:23:48.312Z,16.70
2022-12-25T08:26:52.870Z,16.69
2022-12-25T08:29:55.045Z,16.70
2022-12-25T08:32:57.245Z,16.66
2022-12-25T08:36:04.980Z,16.70
2022-12-25T08:39:10.374Z,16.69
2022-12-25T08:42:12.565Z,16.68
2022-12-25T08:45:14.728Z,16.69
2022-12-25T08:48:16.904Z,16.69
2022-12-25T08:51:21.171Z,16.69
2022-12-25T08:54:24.725Z,16.69
2022-12-25T08:57:26.868Z,16.69
2022-12-25T09:00:29.306Z,16.69
2022-12-25T09:03:34.977Z,16.70
2022-12-25T09:06:37.207Z,16.70
2022-12-25T09:09:39.748Z,16.71
2022-12-25T09:12:41.876Z,16.70
2022-12-25T09:15:44.162Z,16.70
2022-12-25T09:18:46.616Z,16.71
2022-12-25T09:21:48.844Z,16.71
2022-12-25T09:24:51.011Z,16.72
2022-12-25T09:27:53.157Z,16.72
2022-12-25T09:30:55.686Z,16.73
2022-12-25T09:33:58.221Z,16.74
2022-12-25T09:37:02.345Z,16.74
2022-12-25T09:40:05.026Z,16.74
2022-12-25T09:43:11.014Z,16.75
2022-12-25T09:46:20.531Z,16.76
2022-12-25T09:49:39.290Z,16.76
2022-12-25T09:52:46.455Z,16.76
2022-12-25T09:55:57.022Z,16.76
2022-12-25T09:58:59.338Z,16.77
2022-12-25T10:02:21.981Z,16.77
2022-12-25T10:05:43.114Z,16.78
2022-12-25T10:08:56.522Z,16.78
2022-12-25T10:12:27.054Z,16.77
2022-12-25T10:15:45.847Z,16.75
2022-12-25T10:18:57.361Z,16.80
2022-12-25T10:22:02.914Z,16.79
2022-12-25T10:25:07.116Z,16.80
2022-12-25T10:28:15.383Z,16.79
2022-12-25T10:31:26.487Z,16.80
2022-12-25T10:34:28.879Z,16.81
2022-12-25T10:37:31.055Z,16.81
2022-12-25T10:40:39.173Z,16.82
2022-12-25T10:43:49.272Z,16.82
2022-12-25T10:46:54.643Z,16.82
2022-12-25T10:49:57.246Z,16.83
2022-12-25T10:53:05.163Z,16.84
2022-12-25T10:56:07.902Z,16.85
2022-12-25T10:59:11.058Z,16.87
2022-12-25T11:02:35.088Z,16.89
2022-12-25T11:05:37.477Z,16.90
2022-12-25T11:08:39.692Z,16.92
2022-12-25T11:11:41.926Z,16.95
2022-12-25T11:14:53.228Z,16.98
2022-12-25T11:17:55.473Z,17.01
2022-12-25T11:21:00.051Z,17.05
2022-12-25T11:24:07.477Z,17.08
2022-12-25T11:27:27.606Z,17.14
2022-12-25T11:30:31.416Z,17.16
2022-12-25T11:33:37.638Z,17.20
2022-12-25T11:36:50.828Z,17.24
2022-12-25T11:39:55.704Z,17.28
2022-12-25T11:43:08.173Z,17.33
2022-12-25T11:46:16.402Z,17.37
2022-12-25T11:49:19.820Z,17.40
2022-12-25T11:52:22.878Z,17.44
2022-12-25T11:55:37.123Z,17.50
2022-12-25T11:58:44.235Z,17.53
2022-12-25T12:01:55.050Z,17.58
2022-12-25T12:05:24.081Z,17.62
2022-12-25T12:08:26.312Z,17.68
2022-12-25T12:11:33.684Z,17.70
2022-12-25T12:14:45.918Z,17.73
2022-12-25T12:17:48.084Z,17.72
2022-12-25T12:21:04.878Z,17.77
2022-12-25T12:24:18.589Z,17.80
2022-12-25T12:27:36.246Z,17.83
2022-12-25T12:30:38.468Z,17.84
2022-12-25T12:33:49.511Z,17.90
2022-12-25T12:36:58.503Z,17.92
2022-12-25T12:40:01.405Z,17.93
2022-12-25T12:43:04.684Z,17.90
2022-12-25T12:46:30.079Z,17.83
2022-12-25T12:49:33.635Z,17.75
2022-12-25T12:52:37.574Z,17.71
2022-12-25T12:55:39.730Z,17.67
2022-12-25T12:58:52.236Z,17.62
2022-12-25T13:02:26.775Z,17.58
2022-12-25T13:05:34.157Z,17.55
2022-12-25T13:09:09.225Z,17.52
2022-12-25T13:12:12.578Z,17.48
2022-12-25T13:15:15.006Z,17.45
2022-12-25T13:18:17.625Z,17.42
2022-12-25T13:21:23.215Z,17.39
2022-12-25T13:24:27.668Z,17.36
2022-12-25T13:27:32.519Z,17.36
2022-12-25T13:30:34.661Z,17.37
2022-12-25T13:33:37.632Z,17.33
2022-12-25T13:36:40.268Z,17.28
2022-12-25T13:40:04.022Z,17.28
2022-12-25T13:43:06.614Z,17.25
2022-12-25T13:46:12.848Z,17.24
2022-12-25T13:49:17.608Z,17.23
2022-12-25T13:52:31.813Z,17.23
2022-12-25T13:55:33.935Z,17.22
2022-12-25T13:58:37.173Z,17.20
2022-12-25T14:01:43.134Z,17.19
2022-12-25T14:04:45.768Z,17.17
2022-12-25T14:07:53.157Z,17.16
2022-12-25T14:10:55.833Z,17.16
2022-12-25T14:14:21.776Z,17.14
2022-12-25T14:17:24.580Z,17.15
2022-12-25T14:20:32.622Z,17.13
2022-12-25T14:23:43.147Z,17.13
2022-12-25T14:26:45.402Z,17.12
2022-12-25T14:29:49.063Z,17.11
2022-12-25T14:32:53.854Z,17.10
2022-12-25T14:35:56.566Z,17.10
2022-12-25T14:39:03.920Z,17.08
2022-12-25T14:42:41.935Z,17.07
2022-12-25T14:45:54.431Z,17.07
2022-12-25T14:49:04.437Z,17.05
2022-12-25T14:52:21.457Z,17.04
2022-12-25T14:55:27.203Z,17.05
2022-12-25T14:58:31.225Z,17.04
2022-12-25T15:01:41.062Z,17.03
2022-12-25T15:04:44.097Z,17.03
2022-12-25T15:07:46.346Z,17.01
2022-12-25T15:11:04.715Z,17.00
2022-12-25T15:14:07.026Z,17.00
2022-12-25T15:17:26.282Z,17.00
2022-12-25T15:20:32.009Z,16.99
2022-12-25T15:23:34.133Z,17.00
2022-12-25T15:26:36.317Z,16.98
2022-12-25T15:30:08.568Z,16.98
2022-12-25T15:33:00.561Z,16.97
2022-12-25T15:36:02.750Z,16.96
2022-12-25T15:39:04.896Z,16.95
2022-12-25T15:42:19.555Z,16.95
2022-12-25T15:45:24.498Z,16.95
2022-12-25T15:48:26.634Z,16.93
2022-12-25T15:51:28.927Z,16.93
2022-12-25T15:54:32.319Z,16.93
2022-12-25T15:57:35.124Z,16.93
2022-12-25T16:00:37.334Z,16.93
2022-12-25T16:03:39.520Z,16.91
2022-12-25T16:06:41.826Z,16.92
2022-12-25T16:09:44.322Z,16.91
2022-12-25T16:12:46.853Z,16.91
2022-12-25T16:15:51.392Z,16.91
2022-12-25T16:18:53.569Z,16.90
2022-12-25T16:21:55.928Z,16.90
2022-12-25T16:24:58.085Z,16.89
2022-12-25T16:28:03.041Z,16.88
2022-12-25T16:31:05.424Z,16.88
2022-12-25T16:34:08.161Z,16.88
2022-12-25T16:37:10.438Z,16.86
2022-12-25T16:40:12.754Z,16.88
2022-12-25T16:43:20.296Z,16.87
2022-12-25T16:46:25.950Z,16.87
2022-12-25T16:49:28.155Z,16.86
2022-12-25T16:52:34.722Z,16.87
2022-12-25T16:55:39.986Z,16.84
2022-12-25T16:58:46.701Z,16.86
2022-12-25T17:01:49.024Z,16.86
2022-12-25T17:04:51.206Z,16.85
2022-12-25T17:07:53.349Z,16.85
2022-12-25T17:10:55.922Z,16.85
2022-12-25T17:14:03.635Z,16.85
2022-12-25T17:17:05.860Z,16.84
2022-12-25T17:20:08.444Z,16.84
2022-12-25T17:23:10.607Z,16.83
2022-12-25T17:26:12.766Z,16.83
2022-12-25T17:29:20.101Z,16.83
2022-12-25T17:32:24.359Z,16.83
2022-12-25T17:35:26.517Z,16.83
2022-12-25T17:38:30.589Z,16.83
2022-12-25T17:41:33.011Z,16.79
2022-12-25T17:44:35.181Z,16.82
2022-12-25T17:47:37.326Z,16.82
2022-12-25T17:50:41.596Z,16.80
2022-12-25T17:53:46.511Z,16.82
2022-12-25T17:56:49.438Z,16.81
2022-12-25T17:59:51.676Z,16.81
2022-12-25T18:02:56.638Z,16.80
2022-12-25T18:06:06.233Z,16.81
2022-12-25T18:09:09.727Z,16.79
2022-12-25T18:12:11.919Z,16.80
2022-12-25T18:15:14.072Z,16.81
2022-12-25T18:18:16.195Z,16.80
2022-12-25T18:21:18.383Z,16.80
2022-12-25T18:24:20.494Z,16.79
2022-12-25T18:27:22.829Z,16.78
2022-12-25T18:30:25.037Z,16.78
2022-12-25T18:33:27.589Z,16.78
2022-12-25T18:36:30.362Z,16.78
2022-12-25T18:39:33.365Z,16.78
2022-12-25T18:42:41.394Z,16.76
2022-12-25T18:45:44.061Z,16.77
2022-12-25T18:48:46.269Z,16.76
2022-12-25T18:51:48.886Z,16.76
2022-12-25T18:54:51.078Z,16.77
2022-12-25T18:57:53.396Z,16.76
2022-12-25T19:00:55.825Z,16.77
2022-12-25T19:04:04.458Z,16.75
2022-12-25T19:07:07.575Z,16.75
2022-12-25T19:10:10.449Z,16.75
2022-12-25T19:13:12.651Z,16.74
2022-12-25T19:16:15.232Z,16.75
2022-12-25T19:19:17.797Z,16.74
2022-12-25T19:22:20.011Z,16.75
2022-12-25T19:25:22.125Z,16.75
2022-12-25T19:28:25.134Z,16.75
2022-12-25T19:31:30.034Z,16.74
2022-12-25T19:34:32.196Z,16.74
2022-12-25T19:37:34.323Z,16.73
2022-12-25T19:40:40.339Z,16.74
2022-12-25T19:43:44.048Z,16.73
2022-12-25T19:46:46.251Z,16.73
2022-12-25T19:49:52.880Z,16.72
2022-12-25T19:52:55.596Z,16.72
2022-12-25T19:56:01.524Z,16.72
2022-12-25T19:59:03.725Z,16.73
2022-12-25T20:02:06.091Z,16.71
2022-12-25T20:05:08.348Z,16.72
2022-12-25T20:08:10.600Z,16.72
2022-12-25T20:11:12.909Z,16.73
2022-12-25T20:14:16.631Z,16.72
2022-12-25T20:17:18.859Z,16.72
2022-12-25T20:20:21.109Z,16.72
2022-12-25T20:23:23.289Z,16.71
2022-12-25T20:26:28.915Z,16.71
2022-12-25T20:29:31.078Z,16.72
2022-12-25T20:32:33.235Z,16.72
2022-12-25T20:35:35.590Z,16.72
2022-12-25T20:38:37.749Z,16.72
2022-12-25T20:41:40.524Z,16.70
2022-12-25T20:44:43.141Z,16.71
2022-12-25T20:47:45.312Z,16.71
2022-12-25T20:50:47.514Z,16.72
2022-12-25T20:53:50.084Z,16.70
2022-12-25T20:56:52.223Z,16.70
2022-12-25T20:59:54.512Z,16.71
2022-12-25T21:02:56.689Z,16.71
2022-12-25T21:05:59.705Z,16.70
2022-12-25T21:09:02.262Z,16.70
2022-12-25T21:12:04.631Z,16.70
2022-12-25T21:15:13.346Z,16.70
2022-12-25T21:18:19.175Z,16.67
2022-12-25T21:21:22.070Z,16.70
2022-12-25T21:24:24.319Z,16.70
2022-12-25T21:27:26.459Z,16.70
2022-12-25T21:30:28.610Z,16.69
2022-12-25T21:33:49.425Z,16.69
2022-12-25T21:36:51.757Z,16.68
2022-12-25T21:39:53.914Z,16.68
2022-12-25T21:42:56.180Z,16.68
2022-12-25T21:46:05.381Z,16.69
2022-12-25T21:49:07.606Z,16.68
2022-12-25T21:52:09.793Z,16.68
2022-12-25T21:55:11.967Z,16.68
2022-12-25T21:58:14.099Z,16.67
2022-12-25T22:01:16.799Z,16.69
2022-12-25T22:04:21.598Z,16.68
2022-12-25T22:07:23.798Z,16.69
2022-12-25T22:10:26.061Z,16.69
2022-12-25T22:13:47.073Z,16.67
2022-12-25T22:17:07.524Z,16.67
2022-12-25T22:20:12.699Z,16.67
2022-12-25T22:23:16.177Z,16.67
2022-12-25T22:26:21.059Z,16.67
2022-12-25T22:29:23.403Z,16.66
2022-12-25T22:32:25.885Z,16.67
2022-12-25T22:35:28.047Z,16.67
2022-12-25T22:38:30.543Z,16.67
2022-12-25T22:41:33.776Z,16.66
2022-12-25T22:44:36.395Z,16.67
2022-12-25T22:47:38.667Z,16.66
2022-12-25T22:50:40.851Z,16.66
2022-12-25T22:53:42.973Z,16.66
2022-12-25T22:56:47.843Z,16.66
2022-12-25T22:59:51.969Z,16.64
2022-12-25T23:02:54.294Z,16.64
2022-12-25T23:05:56.984Z,16.65
2022-12-25T23:08:59.734Z,16.65
2022-12-25T23:12:01.900Z,16.64
2022-12-25T23:15:05.870Z,16.64
2022-12-25T23:18:27.865Z,16.64
2022-12-25T23:21:49.076Z,16.64
2022-12-25T23:25:09.711Z,16.64
2022-12-25T23:28:11.951Z,16.65
2022-12-25T23:31:14.399Z,16.63
2022-12-25T23:34:16.580Z,16.64
2022-12-25T23:37:19.196Z,16.63
2022-12-25T23:40:21.426Z,16.64
2022-12-25T23:43:23.619Z,16.63
2022-12-25T23:46:25.844Z,16.63
2022-12-25T23:49:28.377Z,16.63
2022-12-25T23:52:30.454Z,16.61
2022-12-25T23:55:33.517Z,16.61
2022-12-25T23:58:35.757Z,16.62
